Time;durP1;ratioP1;P1;durP2;ratioP2;P2;SDS_P1;SDS_P2;PMS_P1;PMS_P2;Temp;Humidity;BMP_temperature;BMP_pressure;BME280_temperature;BME280_humidity;BME280_pressure;Samples;Min_cycle;Max_cycle;Signal;HPM_P1;HPM_P2
2023/10/18 00:02:49;;;;;;;13.57;9.00;;;;;;;;;;4997855;28;20186;-66
2023/10/18 00:05:17;;;;;;;13.37;8.90;;;;;;;;;;4992554;28;20230;-65
2023/10/18 00:07:43;;;;;;;16.87;9.83;;;;;;;;;;5001560;28;20758;-65
2023/10/18 00:10:08;;;;;;;15.33;9.50;;;;;;;;;;4997433;28;20203;-65
2023/10/18 00:12:34;;;;;;;16.40;8.80;;;;;;;;;;4993353;28;20190;-65
2023/10/18 00:15:00;;;;;;;14.57;9.63;;;;;;;;;;4991802;28;20195;-65
2023/10/18 00:17:26;;;;;;;14.83;9.43;;;;;;;;;;4998577;28;20635;-66
2023/10/18 00:19:51;;;;;;;14.33;10.00;;;;;;;;;;5010888;28;20266;-66
2023/10/18 00:22:16;;;;;;;14.93;9.60;;;;;;;;;;5012166;28;20274;-66
2023/10/18 00:24:42;;;;;;;16.33;9.57;;;;;;;;;;5011965;28;20573;-66
2023/10/18 00:27:09;;;;;;;16.20;9.17;;;;;;;;;;5010813;28;20655;-65
2023/10/18 00:29:34;;;;;;;15.60;9.07;;;;;;;;;;5011309;28;20183;-66
2023/10/18 00:31:59;;;;;;;14.87;9.67;;;;;;;;;;5010383;28;20355;-66
2023/10/18 00:34:25;;;;;;;16.10;9.17;;;;;;;;;;5010491;28;20187;-66
2023/10/18 00:36:51;;;;;;;14.13;8.83;;;;;;;;;;5011915;28;20241;-66
2023/10/18 00:39:27;;;;;;;13.60;9.13;;;;;;;;;;5008915;28;20179;-65
2023/10/18 00:41:53;;;;;;;17.37;9.33;;;;;;;;;;5011584;28;20685;-66
2023/10/18 00:44:21;;;;;;;15.07;9.57;;;;;;;;;;5010769;28;20202;-67
2023/10/18 00:46:46;;;;;;;12.87;8.53;;;;;;;;;;5009479;28;20179;-66
2023/10/18 00:49:15;;;;;;;18.33;9.33;;;;;;;;;;5008152;28;20275;-66
2023/10/18 00:51:43;;;;;;;13.87;8.70;;;;;;;;;;5010818;28;20203;-66
2023/10/18 00:54:11;;;;;;;13.53;9.27;;;;;;;;;;5011775;28;20253;-65
2023/10/18 00:56:38;;;;;;;14.37;8.40;;;;;;;;;;5011488;28;20270;-66
2023/10/18 00:59:07;;;;;;;15.73;9.20;;;;;;;;;;5010805;28;20244;-66
2023/10/18 01:01:33;;;;;;;12.43;8.03;;;;;;;;;;5011278;28;20246;-66
2023/10/18 01:04:02;;;;;;;15.20;9.93;;;;;;;;;;5011099;28;20230;-67
2023/10/18 01:06:28;;;;;;;13.30;8.83;;;;;;;;;;5009728;28;20575;-66
2023/10/18 01:08:56;;;;;;;17.00;9.43;;;;;;;;;;5010405;28;20179;-66
2023/10/18 01:11:28;;;;;;;13.23;9.17;;;;;;;;;;5011617;28;20199;-65
2023/10/18 01:13:59;;;;;;;14.20;8.97;;;;;;;;;;5005966;28;20676;-66
2023/10/18 01:16:27;;;;;;;14.17;8.37;;;;;;;;;;5009009;28;20262;-66
2023/10/18 01:18:54;;;;;;;11.30;7.93;;;;;;;;;;5008216;28;20519;-66
2023/10/18 01:21:20;;;;;;;11.80;8.33;;;;;;;;;;5009215;28;20213;-65
2023/10/18 01:23:55;;;;;;;16.03;9.53;;;;;;;;;;5010995;28;20202;-65
2023/10/18 01:26:21;;;;;;;14.07;8.13;;;;;;;;;;5004082;28;20174;-66
2023/10/18 01:28:46;;;;;;;20.93;9.47;;;;;;;;;;5010476;28;20638;-65
2023/10/18 01:31:14;;;;;;;14.20;8.43;;;;;;;;;;5009491;28;20214;-66
2023/10/18 01:33:43;;;;;;;16.77;10.23;;;;;;;;;;5010590;28;20534;-67
2023/10/18 01:36:12;;;;;;;15.33;8.53;;;;;;;;;;5009884;28;20182;-66
2023/10/18 01:38:39;;;;;;;12.30;8.67;;;;;;;;;;5009538;28;20186;-66
2023/10/18 01:41:16;;;;;;;13.90;9.13;;;;;;;;;;5005791;28;20245;-66
2023/10/18 01:43:43;;;;;;;13.07;8.83;;;;;;;;;;5010883;28;20202;-66
2023/10/18 01:46:10;;;;;;;14.47;7.43;;;;;;;;;;5010760;28;20269;-66
2023/10/18 01:48:38;;;;;;;12.50;7.83;;;;;;;;;;5010837;28;20175;-66
2023/10/18 01:51:05;;;;;;;14.93;8.33;;;;;;;;;;5008614;28;20198;-66
2023/10/18 01:53:31;;;;;;;13.87;8.30;;;;;;;;;;5010976;28;20649;-66
2023/10/18 01:55:57;;;;;;;11.37;7.70;;;;;;;;;;5007771;28;20179;-66
2023/10/18 01:58:26;;;;;;;9.87;7.77;;;;;;;;;;5010755;28;20261;-67
2023/10/18 02:00:53;;;;;;;15.73;8.57;;;;;;;;;;5008949;28;20248;-65
2023/10/18 02:03:19;;;;;;;13.90;8.57;;;;;;;;;;5004152;28;20171;-65
2023/10/18 02:05:46;;;;;;;12.40;7.77;;;;;;;;;;5008798;28;20183;-66
2023/10/18 02:08:11;;;;;;;13.97;8.53;;;;;;;;;;5010720;28;20258;-66
2023/10/18 02:10:40;;;;;;;12.30;8.43;;;;;;;;;;5007993;28;20226;-65
2023/10/18 02:13:05;;;;;;;12.20;7.20;;;;;;;;;;5010519;28;20199;-66
2023/10/18 02:15:32;;;;;;;13.53;8.33;;;;;;;;;;5010135;28;20210;-67
2023/10/18 02:17:58;;;;;;;11.70;7.67;;;;;;;;;;5004962;28;20242;-66
2023/10/18 02:20:26;;;;;;;11.27;7.73;;;;;;;;;;5004845;28;20203;-66
2023/10/18 02:22:53;;;;;;;12.13;7.97;;;;;;;;;;5010815;28;20600;-66
2023/10/18 02:25:37;;;;;;;11.67;7.53;;;;;;;;;;5010289;28;20211;-66
2023/10/18 02:28:08;;;;;;;10.70;7.60;;;;;;;;;;5009380;28;20182;-65
2023/10/18 02:30:37;;;;;;;13.30;7.77;;;;;;;;;;5010435;28;20699;-66
2023/10/18 02:33:04;;;;;;;11.17;7.53;;;;;;;;;;5008349;28;20195;-67
2023/10/18 02:35:29;;;;;;;10.83;7.30;;;;;;;;;;5020505;28;20202;-68
2023/10/18 02:37:54;;;;;;;11.93;7.73;;;;;;;;;;5018229;28;20192;-67
2023/10/18 02:40:29;;;;;;;13.37;8.07;;;;;;;;;;5014837;28;20197;-67
2023/10/18 02:42:55;;;;;;;8.97;7.33;;;;;;;;;;5020153;28;20185;-67
2023/10/18 02:45:22;;;;;;;11.73;7.40;;;;;;;;;;5018626;28;20195;-67
2023/10/18 02:47:51;;;;;;;9.77;6.30;;;;;;;;;;5015452;28;20198;-67
2023/10/18 02:50:17;;;;;;;13.47;7.57;;;;;;;;;;5002443;28;20210;-67
2023/10/18 02:52:42;;;;;;;10.23;7.10;;;;;;;;;;5016873;28;20178;-67
2023/10/18 02:55:11;;;;;;;12.77;6.97;;;;;;;;;;5015768;28;20175;-67
2023/10/18 02:57:37;;;;;;;11.03;7.47;;;;;;;;;;5014446;28;20252;-68
2023/10/18 03:00:10;;;;;;;9.90;6.87;;;;;;;;;;5008518;28;20647;-66
2023/10/18 03:02:38;;;;;;;11.00;7.17;;;;;;;;;;5013190;28;20237;-67
2023/10/18 03:05:05;;;;;;;12.40;7.40;;;;;;;;;;5012515;28;20211;-67
2023/10/18 03:07:30;;;;;;;11.23;7.37;;;;;;;;;;5013750;28;20167;-67
2023/10/18 03:10:02;;;;;;;10.43;7.03;;;;;;;;;;5013711;28;20297;-67
2023/10/18 03:12:28;;;;;;;10.17;7.30;;;;;;;;;;5012808;28;20171;-67
2023/10/18 03:14:54;;;;;;;11.73;7.67;;;;;;;;;;5012684;28;20202;-67
2023/10/18 03:17:22;;;;;;;11.23;7.23;;;;;;;;;;5017609;28;20174;-67
2023/10/18 03:19:50;;;;;;;9.23;6.90;;;;;;;;;;5010096;28;20175;-67
2023/10/18 03:22:19;;;;;;;11.27;7.50;;;;;;;;;;5010741;28;20179;-67
2023/10/18 03:24:44;;;;;;;15.83;7.50;;;;;;;;;;5013588;28;20206;-67
2023/10/18 03:27:10;;;;;;;10.27;6.97;;;;;;;;;;5013848;28;20179;-67
2023/10/18 03:29:37;;;;;;;13.70;7.33;;;;;;;;;;5012545;28;20536;-67
2023/10/18 03:32:06;;;;;;;9.37;7.07;;;;;;;;;;5010876;28;20210;-67
2023/10/18 03:34:35;;;;;;;12.90;6.90;;;;;;;;;;5011818;28;20646;-68
2023/10/18 03:37:00;;;;;;;12.03;7.03;;;;;;;;;;5010991;28;20183;-68
2023/10/18 03:39:25;;;;;;;12.90;7.27;;;;;;;;;;5010367;28;20187;-68
2023/10/18 03:41:52;;;;;;;10.30;7.17;;;;;;;;;;5011122;28;20732;-66
2023/10/18 03:44:27;;;;;;;11.63;6.60;;;;;;;;;;5013311;28;20188;-67
2023/10/18 03:46:55;;;;;;;12.03;7.20;;;;;;;;;;5010607;28;20626;-67
2023/10/18 03:51:56;;;;;;;10.43;6.50;;;;;;;;;;5011959;28;20198;-67
2023/10/18 03:54:23;;;;;;;11.20;7.27;;;;;;;;;;5012752;28;20175;-67
2023/10/18 03:56:52;;;;;;;10.17;6.30;;;;;;;;;;5008250;28;20206;-67
2023/10/18 03:59:21;;;;;;;9.87;6.97;;;;;;;;;;5010753;28;20198;-67
2023/10/18 04:02:28;;;;;;;12.93;7.00;;;;;;;;;;5008214;28;20752;-67
2023/10/18 04:04:37;;;;;;;9.60;6.60;;;;;;;;;;5004322;28;20199;-67
2023/10/18 04:07:12;;;;;;;11.83;6.60;;;;;;;;;;5010388;28;20185;-67
2023/10/18 04:09:39;;;;;;;11.40;6.30;;;;;;;;;;5012839;28;20183;-67
2023/10/18 04:12:05;;;;;;;9.00;6.17;;;;;;;;;;5011490;28;20760;-67
2023/10/18 04:14:33;;;;;;;10.67;7.00;;;;;;;;;;5011387;28;20179;-67
2023/10/18 04:16:58;;;;;;;10.03;7.27;;;;;;;;;;5006769;28;20241;-67
2023/10/18 04:19:24;;;;;;;8.90;6.07;;;;;;;;;;5010334;28;20674;-67
2023/10/18 04:21:53;;;;;;;11.33;6.77;;;;;;;;;;5011015;28;20233;-67
2023/10/18 04:24:20;;;;;;;13.23;6.50;;;;;;;;;;5012135;28;20205;-67
2023/10/18 04:26:47;;;;;;;12.07;6.47;;;;;;;;;;5009182;28;20183;-67
2023/10/18 04:29:18;;;;;;;10.80;6.47;;;;;;;;;;5012268;28;20178;-68
2023/10/18 04:31:44;;;;;;;15.17;7.33;;;;;;;;;;5011039;28;20245;-67
2023/10/18 04:34:11;;;;;;;12.00;7.73;;;;;;;;;;5002980;28;20224;-67
2023/10/18 04:36:36;;;;;;;11.30;6.87;;;;;;;;;;5005439;28;20179;-67
2023/10/18 04:39:05;;;;;;;10.57;7.17;;;;;;;;;;5005028;28;20184;-66
2023/10/18 04:41:31;;;;;;;8.40;6.63;;;;;;;;;;5008951;28;20251;-67
2023/10/18 04:44:02;;;;;;;11.57;6.90;;;;;;;;;;5009330;28;20665;-66
2023/10/18 04:46:31;;;;;;;9.80;6.83;;;;;;;;;;5009188;28;20197;-67
2023/10/18 04:51:56;;;;;;;9.03;6.17;;;;;;;;;;5011574;28;20621;-67
2023/10/18 04:54:18;;;;;;;13.17;6.50;;;;;;;;;;5007420;28;20179;-67
2023/10/18 04:56:44;;;;;;;9.53;6.27;;;;;;;;;;5009965;28;20212;-67
2023/10/18 05:04:18;;;;;;;9.80;6.17;;;;;;;;;;5011143;28;20198;-67
2023/10/18 05:06:56;;;;;;;9.13;5.97;;;;;;;;;;5007525;28;20185;-66
2023/10/18 05:09:34;;;;;;;8.70;6.13;;;;;;;;;;5010276;28;20570;-66
2023/10/18 05:12:06;;;;;;;12.43;7.23;;;;;;;;;;5010971;28;20199;-67
2023/10/18 05:14:43;;;;;;;11.37;7.07;;;;;;;;;;5011160;28;20181;-67
2023/10/18 05:17:21;;;;;;;13.73;7.80;;;;;;;;;;5008105;28;20182;-67
2023/10/18 05:19:47;;;;;;;12.00;7.43;;;;;;;;;;5010172;28;20260;-67
2023/10/18 05:22:35;;;;;;;15.37;6.97;;;;;;;;;;5009823;28;20697;-67
2023/10/18 05:27:38;;;;;;;15.33;7.77;;;;;;;;;;5007114;28;20182;-66
2023/10/18 05:30:14;;;;;;;10.80;6.70;;;;;;;;;;5007812;28;20253;-67
2023/10/18 05:32:49;;;;;;;14.83;8.37;;;;;;;;;;5009904;28;20174;-68
2023/10/18 05:35:47;;;;;;;12.03;7.47;;;;;;;;;;5008824;28;20661;-68
2023/10/18 05:43:07;;;;;;;13.50;7.07;;;;;;;;;;5009577;28;20745;-69
2023/10/18 05:45:33;;;;;;;11.30;6.70;;;;;;;;;;5003979;28;20735;-68
2023/10/18 05:48:12;;;;;;;13.30;6.83;;;;;;;;;;5009226;28;20174;-68
2023/10/18 05:50:38;;;;;;;13.07;7.53;;;;;;;;;;5006571;28;20506;-67
2023/10/18 05:53:06;;;;;;;10.57;6.97;;;;;;;;;;5009509;28;20182;-68
2023/10/18 05:55:32;;;;;;;14.33;7.43;;;;;;;;;;5003735;28;20599;-68
2023/10/18 05:57:59;;;;;;;11.87;8.10;;;;;;;;;;5013478;28;20182;-68
2023/10/18 06:00:25;;;;;;;10.23;7.47;;;;;;;;;;5007553;28;20213;-68
2023/10/18 06:02:52;;;;;;;11.37;7.10;;;;;;;;;;5005979;28;20178;-68
2023/10/18 06:05:17;;;;;;;16.90;7.60;;;;;;;;;;5008267;28;20781;-68
2023/10/18 06:07:43;;;;;;;14.13;7.70;;;;;;;;;;5011077;28;20258;-67
2023/10/18 06:10:13;;;;;;;13.10;8.40;;;;;;;;;;5014166;28;20340;-68
2023/10/18 06:12:41;;;;;;;11.70;7.33;;;;;;;;;;5014728;28;20565;-68
2023/10/18 06:15:12;;;;;;;10.80;6.93;;;;;;;;;;5013058;28;20670;-68
2023/10/18 06:17:47;;;;;;;10.93;6.80;;;;;;;;;;5008799;28;20262;-68
2023/10/18 06:20:27;;;;;;;9.90;7.20;;;;;;;;;;5002763;28;20221;-68
2023/10/18 06:25:37;;;;;;;13.37;7.27;;;;;;;;;;5011713;28;20203;-68
2023/10/18 06:28:09;;;;;;;11.13;7.03;;;;;;;;;;5012969;28;20187;-69
2023/10/18 06:30:40;;;;;;;9.37;6.80;;;;;;;;;;5014694;28;20605;-69
2023/10/18 06:33:12;;;;;;;11.17;6.77;;;;;;;;;;5013245;28;20183;-66
2023/10/18 06:35:42;;;;;;;10.20;6.73;;;;;;;;;;5011294;28;20558;-67
2023/10/18 06:38:09;;;;;;;11.63;7.20;;;;;;;;;;5012197;28;20248;-67
2023/10/18 06:40:43;;;;;;;11.37;6.77;;;;;;;;;;5007327;28;20645;-67
2023/10/18 06:43:09;;;;;;;16.20;7.60;;;;;;;;;;5011592;28;20561;-68
2023/10/18 06:45:37;;;;;;;13.90;7.63;;;;;;;;;;5014137;28;20195;-67
2023/10/18 06:48:03;;;;;;;10.93;6.93;;;;;;;;;;5014162;28;20175;-67
2023/10/18 06:50:29;;;;;;;12.97;7.67;;;;;;;;;;5013672;28;20195;-67
2023/10/18 06:52:54;;;;;;;11.67;7.10;;;;;;;;;;5012708;28;20646;-68
2023/10/18 06:55:21;;;;;;;10.73;7.10;;;;;;;;;;5012815;28;20183;-68
2023/10/18 06:57:49;;;;;;;12.30;6.87;;;;;;;;;;5014335;28;20586;-67
2023/10/18 07:00:15;;;;;;;11.40;6.23;;;;;;;;;;5012452;28;20678;-68
2023/10/18 07:02:40;;;;;;;14.23;6.37;;;;;;;;;;5010800;28;20292;-69
2023/10/18 07:05:08;;;;;;;11.17;6.80;;;;;;;;;;5013472;28;20748;-68
2023/10/18 07:07:33;;;;;;;9.37;6.53;;;;;;;;;;5010903;28;20182;-68
2023/10/18 07:09:58;;;;;;;11.53;6.90;;;;;;;;;;5012774;28;20175;-68
2023/10/18 07:12:27;;;;;;;10.67;6.17;;;;;;;;;;5012825;28;20266;-68
2023/10/18 07:14:53;;;;;;;10.20;7.43;;;;;;;;;;5008734;28;20187;-68
2023/10/18 07:17:21;;;;;;;12.27;7.20;;;;;;;;;;5008246;28;20182;-68
2023/10/18 07:19:49;;;;;;;9.70;6.00;;;;;;;;;;5005234;28;20655;-68
2023/10/18 07:22:18;;;;;;;9.07;6.00;;;;;;;;;;5007966;28;20534;-68
2023/10/18 07:24:47;;;;;;;15.77;6.07;;;;;;;;;;5007572;28;20203;-68
2023/10/18 07:27:12;;;;;;;11.77;6.63;;;;;;;;;;5007006;28;20200;-68
2023/10/18 07:29:37;;;;;;;9.33;5.97;;;;;;;;;;5005202;28;20638;-67
2023/10/18 07:32:06;;;;;;;8.73;6.57;;;;;;;;;;5011959;28;20213;-67
2023/10/18 07:34:32;;;;;;;8.83;6.23;;;;;;;;;;5004816;28;20636;-67
2023/10/18 07:36:57;;;;;;;8.47;5.53;;;;;;;;;;5010925;28;20178;-67
2023/10/18 07:39:25;;;;;;;9.40;6.47;;;;;;;;;;5010058;28;20193;-67
2023/10/18 07:41:52;;;;;;;12.77;5.37;;;;;;;;;;5006682;28;20203;-67
2023/10/18 07:44:17;;;;;;;9.30;5.53;;;;;;;;;;5008455;28;20203;-67
2023/10/18 07:46:42;;;;;;;8.67;5.70;;;;;;;;;;5010463;28;20175;-69
2023/10/18 07:49:14;;;;;;;8.00;5.20;;;;;;;;;;5008303;28;20175;-67
2023/10/18 07:51:48;;;;;;;8.87;5.80;;;;;;;;;;5012946;28;20234;-68
2023/10/18 07:54:17;;;;;;;9.53;5.33;;;;;;;;;;5012743;28;20178;-68
2023/10/18 07:56:49;;;;;;;8.60;5.50;;;;;;;;;;5012461;28;20675;-67
2023/10/18 07:59:29;;;;;;;8.43;5.53;;;;;;;;;;5011922;28;20176;-66
2023/10/18 08:02:32;;;;;;;8.63;5.60;;;;;;;;;;5008957;28;20682;-68
2023/10/18 08:04:53;;;;;;;7.60;5.20;;;;;;;;;;5006442;28;20686;-67
2023/10/18 08:07:22;;;;;;;6.83;5.10;;;;;;;;;;5007820;28;20235;-68
2023/10/18 08:09:57;;;;;;;7.67;5.33;;;;;;;;;;5010772;28;20268;-67
2023/10/18 08:12:28;;;;;;;9.40;5.50;;;;;;;;;;5007956;28;20175;-66
2023/10/18 08:14:54;;;;;;;10.60;5.23;;;;;;;;;;5011965;28;20187;-67
2023/10/18 08:17:29;;;;;;;12.03;6.30;;;;;;;;;;5011779;28;20564;-67
2023/10/18 08:20:28;;;;;;;13.97;5.20;;;;;;;;;;5011024;28;20186;-67
2023/10/18 08:22:43;;;;;;;10.20;5.63;;;;;;;;;;5010508;28;20183;-67
2023/10/18 08:25:21;;;;;;;7.67;4.90;;;;;;;;;;5010268;28;20211;-67
2023/10/18 08:27:46;;;;;;;10.17;5.97;;;;;;;;;;5011254;28;20441;-67
2023/10/18 08:30:22;;;;;;;8.60;5.33;;;;;;;;;;5008772;28;20243;-66
2023/10/18 08:32:50;;;;;;;7.87;4.73;;;;;;;;;;5008712;28;20665;-68
2023/10/18 08:35:19;;;;;;;8.77;4.60;;;;;;;;;;5011305;28;20270;-65
2023/10/18 08:37:44;;;;;;;9.73;5.20;;;;;;;;;;5011424;28;20171;-67
2023/10/18 08:40:27;;;;;;;6.63;4.60;;;;;;;;;;5011101;28;20290;-68
2023/10/18 08:42:56;;;;;;;8.17;4.97;;;;;;;;;;5013387;28;20188;-67
2023/10/18 08:45:23;;;;;;;8.63;5.07;;;;;;;;;;5016587;28;20203;-67
2023/10/18 08:47:52;;;;;;;6.20;4.30;;;;;;;;;;5010118;28;20190;-67
2023/10/18 08:50:18;;;;;;;6.80;4.20;;;;;;;;;;5015641;28;20278;-68
2023/10/18 08:52:47;;;;;;;6.00;4.33;;;;;;;;;;5016083;28;20199;-67
2023/10/18 08:57:57;;;;;;;8.50;5.53;;;;;;;;;;5018464;28;20921;-68
2023/10/18 09:02:51;;;;;;;6.87;4.83;;;;;;;;;;5015104;28;20653;-68
2023/10/18 09:05:22;;;;;;;8.30;4.90;;;;;;;;;;5011511;28;20195;-68
2023/10/18 09:07:49;;;;;;;8.70;5.07;;;;;;;;;;5014048;28;20179;-67
2023/10/18 09:10:32;;;;;;;5.27;4.23;;;;;;;;;;5010172;28;20202;-67
2023/10/18 09:15:27;;;;;;;7.67;4.20;;;;;;;;;;5017484;28;20183;-67
2023/10/18 09:17:56;;;;;;;6.80;4.67;;;;;;;;;;5011116;28;20179;-67
2023/10/18 09:20:27;;;;;;;6.00;4.70;;;;;;;;;;5010886;28;20233;-66
2023/10/18 09:22:53;;;;;;;7.77;4.27;;;;;;;;;;5005980;28;20242;-67
2023/10/18 09:25:20;;;;;;;7.22;4.88;;;;;;;;;;5003874;28;20203;-67
2023/10/18 09:27:45;;;;;;;5.60;4.57;;;;;;;;;;5008372;28;20176;-67
2023/10/18 09:30:13;;;;;;;6.82;5.00;;;;;;;;;;5010047;28;20191;-66
2023/10/18 09:32:39;;;;;;;7.68;4.78;;;;;;;;;;5010620;28;20175;-66
2023/10/18 09:35:08;;;;;;;8.38;5.50;;;;;;;;;;5008014;28;20228;-66
2023/10/18 09:37:35;;;;;;;7.82;4.47;;;;;;;;;;5009645;28;20736;-66
2023/10/18 09:40:02;;;;;;;8.88;5.05;;;;;;;;;;5008225;28;20179;-67
2023/10/18 09:42:28;;;;;;;8.43;5.25;;;;;;;;;;5009686;28;20608;-66
2023/10/18 09:44:53;;;;;;;7.35;5.28;;;;;;;;;;5010568;28;20207;-67
2023/10/18 09:47:23;;;;;;;9.48;4.65;;;;;;;;;;5010655;28;20585;-67
2023/10/18 09:49:49;;;;;;;5.85;5.03;;;;;;;;;;5011309;28;20178;-68
2023/10/18 09:52:15;;;;;;;6.43;4.80;;;;;;;;;;5008875;28;20190;-65
2023/10/18 09:54:47;;;;;;;7.78;5.00;;;;;;;;;;5007781;28;20257;-67
2023/10/18 09:57:18;;;;;;;8.88;5.15;;;;;;;;;;5009410;28;20179;-68
2023/10/18 09:59:47;;;;;;;8.90;5.25;;;;;;;;;;5010484;28;20190;-67
2023/10/18 10:02:15;;;;;;;8.07;4.90;;;;;;;;;;5004131;28;20193;-67
2023/10/18 10:04:42;;;;;;;7.40;4.80;;;;;;;;;;5009586;28;20259;-67
2023/10/18 10:09:59;;;;;;;9.77;5.32;;;;;;;;;;5006439;28;20772;-67
2023/10/18 10:12:27;;;;;;;5.15;4.40;;;;;;;;;;5008116;28;20183;-67
2023/10/18 10:14:52;;;;;;;7.15;5.53;;;;;;;;;;5003649;28;20195;-67
2023/10/18 10:17:18;;;;;;;7.35;5.28;;;;;;;;;;5006246;28;20179;-67
2023/10/18 10:19:53;;;;;;;9.00;5.40;;;;;;;;;;5008480;28;20194;-67
2023/10/18 10:22:24;;;;;;;6.78;4.85;;;;;;;;;;5010116;28;20625;-67
2023/10/18 10:24:58;;;;;;;7.80;5.07;;;;;;;;;;5007859;28;20554;-67
2023/10/18 10:27:27;;;;;;;5.13;4.35;;;;;;;;;;5007156;28;20181;-67
2023/10/18 10:30:25;;;;;;;6.43;4.68;;;;;;;;;;5009818;28;20181;-67
2023/10/18 10:32:54;;;;;;;7.85;4.80;;;;;;;;;;5006312;28;20186;-67
2023/10/18 10:35:32;;;;;;;6.00;4.47;;;;;;;;;;5005156;28;20238;-67
2023/10/18 10:38:01;;;;;;;6.25;4.80;;;;;;;;;;5008137;28;20182;-67
2023/10/18 10:43:01;;;;;;;7.57;4.32;;;;;;;;;;5009348;28;20282;-68
2023/10/18 10:48:15;;;;;;;7.30;4.88;;;;;;;;;;5009027;28;20190;-67
2023/10/18 10:50:53;;;;;;;6.53;4.82;;;;;;;;;;5008511;28;20199;-67
2023/10/18 10:53:57;;;;;;;6.68;4.90;;;;;;;;;;5008498;28;20179;-67
2023/10/18 10:56:28;;;;;;;6.80;5.03;;;;;;;;;;4971648;28;20280;-67
2023/10/18 11:01:39;;;;;;;8.00;4.57;;;;;;;;;;5010066;28;20432;-67
2023/10/18 11:04:27;;;;;;;6.20;4.97;;;;;;;;;;5014254;28;20195;-67
2023/10/18 11:06:56;;;;;;;6.65;4.43;;;;;;;;;;5013417;28;20182;-67
2023/10/18 11:09:27;;;;;;;6.82;4.97;;;;;;;;;;5013828;28;20646;-67
2023/10/18 11:11:56;;;;;;;7.35;5.43;;;;;;;;;;5011987;28;20278;-68
2023/10/18 11:14:27;;;;;;;6.53;4.80;;;;;;;;;;5012331;28;20182;-67
2023/10/18 11:16:56;;;;;;;8.23;5.03;;;;;;;;;;5013111;28;20350;-67
2023/10/18 11:19:28;;;;;;;7.20;5.10;;;;;;;;;;5013258;28;20568;-68
2023/10/18 11:21:54;;;;;;;11.07;5.32;;;;;;;;;;5007622;28;20294;-67
2023/10/18 11:24:21;;;;;;;8.40;4.93;;;;;;;;;;5009726;28;20198;-67
2023/10/18 11:26:47;;;;;;;7.28;5.18;;;;;;;;;;5008217;28;20179;-68
2023/10/18 11:29:12;;;;;;;7.68;5.28;;;;;;;;;;5010147;28;20179;-67
2023/10/18 11:31:38;;;;;;;7.93;4.55;;;;;;;;;;5011406;28;20203;-67
2023/10/18 11:34:06;;;;;;;7.07;4.93;;;;;;;;;;5011782;28;20206;-68
2023/10/18 11:36:33;;;;;;;8.18;4.93;;;;;;;;;;5002054;28;20179;-67
2023/10/18 11:39:17;;;;;;;7.53;5.53;;;;;;;;;;5009346;28;20183;-67
2023/10/18 11:41:44;;;;;;;6.53;4.88;;;;;;;;;;5006805;28;20276;-67
2023/10/18 11:44:20;;;;;;;11.07;5.53;;;;;;;;;;5014602;28;20203;-67
2023/10/18 11:46:46;;;;;;;10.55;5.07;;;;;;;;;;5008378;28;20254;-67
2023/10/18 11:49:16;;;;;;;7.40;5.03;;;;;;;;;;5008340;28;20269;-67
2023/10/18 11:51:43;;;;;;;9.15;5.03;;;;;;;;;;5007571;28;20622;-67
2023/10/18 11:54:12;;;;;;;8.13;5.35;;;;;;;;;;5012813;28;20175;-67
2023/10/18 11:56:37;;;;;;;8.77;5.63;;;;;;;;;;5011879;28;20670;-67
2023/10/18 11:59:02;;;;;;;10.00;5.53;;;;;;;;;;5009367;28;20285;-67
2023/10/18 12:01:34;;;;;;;9.02;4.82;;;;;;;;;;5009073;28;20207;-66
2023/10/18 12:03:59;;;;;;;8.15;5.43;;;;;;;;;;5010921;28;20190;-67
2023/10/18 12:06:25;;;;;;;9.32;5.95;;;;;;;;;;5012024;28;20258;-67
2023/10/18 12:11:34;;;;;;;6.40;4.35;;;;;;;;;;5011264;28;20197;-66
2023/10/18 12:14:00;;;;;;;6.25;4.57;;;;;;;;;;5012249;28;20166;-66
2023/10/18 12:16:25;;;;;;;5.45;3.85;;;;;;;;;;5012027;28;20178;-67
2023/10/18 12:18:52;;;;;;;9.45;5.55;;;;;;;;;;5011932;28;20175;-67
2023/10/18 12:21:20;;;;;;;9.02;4.82;;;;;;;;;;5012564;28;20201;-67
2023/10/18 12:23:46;;;;;;;9.32;4.82;;;;;;;;;;5011873;28;20167;-67
2023/10/18 12:26:11;;;;;;;6.95;4.80;;;;;;;;;;5011863;28;20250;-67
2023/10/18 12:28:37;;;;;;;5.68;4.18;;;;;;;;;;5011065;28;20273;-67
2023/10/18 12:31:09;;;;;;;5.93;4.53;;;;;;;;;;5012186;28;20719;-67
2023/10/18 12:33:35;;;;;;;8.30;4.85;;;;;;;;;;5011881;28;20179;-67
2023/10/18 12:36:00;;;;;;;11.10;4.70;;;;;;;;;;5011704;28;20201;-66
2023/10/18 12:38:32;;;;;;;6.95;4.82;;;;;;;;;;5008892;28;20179;-67
2023/10/18 12:43:44;;;;;;;9.23;4.88;;;;;;;;;;5007402;28;20175;-67
2023/10/18 12:46:11;;;;;;;7.07;4.80;;;;;;;;;;5011320;28;20175;-67
2023/10/18 12:48:36;;;;;;;6.68;4.78;;;;;;;;;;5010706;28;20257;-67
2023/10/18 12:51:08;;;;;;;6.43;4.50;;;;;;;;;;5011326;28;20241;-67
2023/10/18 12:53:49;;;;;;;11.38;5.10;;;;;;;;;;5011289;28;20187;-67
2023/10/18 12:56:31;;;;;;;12.38;5.45;;;;;;;;;;5010918;28;20170;-68
2023/10/18 13:01:32;;;;;;;6.25;4.43;;;;;;;;;;5006745;28;20690;-66
2023/10/18 13:03:58;;;;;;;7.63;5.50;;;;;;;;;;5008184;28;20202;-66
2023/10/18 13:06:41;;;;;;;8.23;5.15;;;;;;;;;;5010302;28;20178;-66
2023/10/18 13:09:15;;;;;;;9.68;5.25;;;;;;;;;;5009302;28;20171;-67
2023/10/18 13:14:06;;;;;;;24.98;5.93;;;;;;;;;;5010671;28;20797;-67
2023/10/18 13:16:32;;;;;;;7.10;5.25;;;;;;;;;;5007548;28;20186;-67
2023/10/18 13:18:58;;;;;;;7.80;4.80;;;;;;;;;;5011288;28;20178;-67
2023/10/18 13:21:27;;;;;;;10.98;5.10;;;;;;;;;;5010371;28;20579;-67
2023/10/18 13:23:56;;;;;;;5.97;4.38;;;;;;;;;;5010755;28;20186;-67
2023/10/18 13:26:26;;;;;;;5.10;4.38;;;;;;;;;;5006544;28;20199;-67
2023/10/18 13:28:52;;;;;;;8.38;5.35;;;;;;;;;;5004697;28;20197;-67
2023/10/18 13:31:30;;;;;;;6.35;4.47;;;;;;;;;;5010373;28;20705;-67
2023/10/18 13:33:55;;;;;;;6.30;4.82;;;;;;;;;;5009472;28;20222;-67
2023/10/18 13:36:21;;;;;;;7.43;5.78;;;;;;;;;;5010414;28;20723;-67
2023/10/18 13:38:49;;;;;;;8.52;5.40;;;;;;;;;;5008743;28;20185;-67
2023/10/18 13:41:14;;;;;;;6.88;4.57;;;;;;;;;;5008190;28;20269;-67
2023/10/18 13:43:39;;;;;;;5.32;4.38;;;;;;;;;;5010482;28;20202;-67
2023/10/18 13:46:08;;;;;;;7.53;5.28;;;;;;;;;;5007267;28;20207;-67
2023/10/18 13:48:33;;;;;;;7.85;4.60;;;;;;;;;;5009227;28;20175;-67
2023/10/18 13:50:58;;;;;;;8.73;5.10;;;;;;;;;;5010439;28;20583;-67
2023/10/18 13:53:25;;;;;;;8.45;5.30;;;;;;;;;;5010788;28;20175;-67
2023/10/18 13:55:59;;;;;;;7.47;4.55;;;;;;;;;;5010263;28;20163;-67
2023/10/18 13:58:24;;;;;;;13.25;4.60;;;;;;;;;;5009850;28;20174;-66
2023/10/18 14:00:51;;;;;;;7.95;5.18;;;;;;;;;;5007829;28;20209;-67
2023/10/18 14:03:19;;;;;;;8.18;4.22;;;;;;;;;;5005542;28;20220;-66
2023/10/18 14:05:45;;;;;;;6.38;4.68;;;;;;;;;;4993063;28;20527;-67
2023/10/18 14:08:16;;;;;;;6.55;4.50;;;;;;;;;;5001692;28;20266;-67
2023/10/18 14:10:42;;;;;;;7.43;4.53;;;;;;;;;;5001694;28;20199;-67
2023/10/18 14:13:07;;;;;;;8.80;5.10;;;;;;;;;;5007588;28;20187;-66
2023/10/18 14:15:32;;;;;;;7.50;5.13;;;;;;;;;;5003659;28;20721;-67
2023/10/18 14:17:57;;;;;;;8.68;5.45;;;;;;;;;;5004916;28;20195;-67
2023/10/18 14:20:26;;;;;;;7.10;5.00;;;;;;;;;;5004283;28;20198;-67
2023/10/18 14:22:55;;;;;;;7.97;4.85;;;;;;;;;;4998433;28;20214;-67
2023/10/18 14:25:21;;;;;;;6.93;5.03;;;;;;;;;;4998409;28;20550;-67
2023/10/18 14:27:46;;;;;;;7.13;4.90;;;;;;;;;;5005238;28;20179;-66
2023/10/18 14:30:12;;;;;;;7.72;4.40;;;;;;;;;;5013586;28;20444;-66
2023/10/18 14:32:42;;;;;;;7.22;4.70;;;;;;;;;;5013229;28;20202;-66
2023/10/18 14:35:07;;;;;;;7.20;4.80;;;;;;;;;;5010735;28;20549;-66
2023/10/18 14:37:33;;;;;;;6.93;3.88;;;;;;;;;;5010763;28;20194;-66
2023/10/18 14:39:58;;;;;;;4.18;3.78;;;;;;;;;;5007081;28;20257;-65
2023/10/18 14:42:28;;;;;;;9.10;4.25;;;;;;;;;;5005302;28;20179;-66
2023/10/18 14:44:53;;;;;;;8.43;4.57;;;;;;;;;;5010849;28;20215;-64
2023/10/18 14:47:19;;;;;;;7.65;4.30;;;;;;;;;;5011664;28;20178;-66
2023/10/18 14:49:45;;;;;;;8.27;3.92;;;;;;;;;;5014140;28;20548;-65
2023/10/18 14:52:13;;;;;;;7.00;4.30;;;;;;;;;;5006806;28;20266;-66
2023/10/18 14:54:41;;;;;;;6.93;4.63;;;;;;;;;;5007664;28;20187;-63
2023/10/18 14:57:06;;;;;;;6.75;4.28;;;;;;;;;;5005067;28;20666;-64
2023/10/18 14:59:32;;;;;;;8.02;4.30;;;;;;;;;;5007857;28;20194;-66
2023/10/18 15:01:58;;;;;;;5.63;4.35;;;;;;;;;;5008305;28;20571;-66
2023/10/18 15:04:24;;;;;;;6.68;4.55;;;;;;;;;;5012908;28;20191;-66
2023/10/18 15:06:49;;;;;;;7.35;4.00;;;;;;;;;;5011940;28;20190;-68
2023/10/18 15:09:16;;;;;;;6.90;4.43;;;;;;;;;;5012785;28;20765;-65
2023/10/18 15:11:41;;;;;;;4.25;3.17;;;;;;;;;;5010729;28;20700;-66
2023/10/18 15:14:07;;;;;;;7.63;4.25;;;;;;;;;;5013061;28;20175;-66
2023/10/18 15:16:33;;;;;;;5.88;4.50;;;;;;;;;;5013831;28;20195;-66
2023/10/18 15:18:58;;;;;;;6.43;4.18;;;;;;;;;;5013482;28;20233;-66
2023/10/18 15:21:24;;;;;;;6.07;4.22;;;;;;;;;;5019596;28;20245;-66
2023/10/18 15:23:49;;;;;;;5.28;3.83;;;;;;;;;;5011003;28;20187;-66
2023/10/18 15:26:16;;;;;;;6.00;3.83;;;;;;;;;;5013365;28;20174;-66
2023/10/18 15:28:42;;;;;;;5.95;4.00;;;;;;;;;;5012443;28;20179;-66
2023/10/18 15:31:08;;;;;;;5.95;4.15;;;;;;;;;;5007361;28;20605;-66
2023/10/18 15:33:35;;;;;;;6.25;3.85;;;;;;;;;;5012528;28;20202;-65
2023/10/18 15:36:00;;;;;;;6.47;4.22;;;;;;;;;;4994312;28;20539;-66